Etusivu
METAR-TAF:

METAR-TAF

Lentoasemat :

Jendouba, Tunisia

Leveyspiiri: 36-29N, Pituuspiiri: 008-48E, korkeus merenpinnasta: 143 m

Tämänhetkinen sää

Tämä raportti tehtiin 29 minuuttia sitten, kello 11.00 UTC
Tuuli 5 kn idästä/koillisesta, vaihdellen pohjoisen ja idän/kaakon välillä
Lämpötila 19°C
Kosteus 60%
Ilmanpaine 1014 hPa
Näkyvyys 10 km tai enemmän
Hajanaisia pilviä 2000 ft:n korkeudessa
Hajanaisia pilviä 3000 ft:n korkeudessa

METAR: DTTN 011100Z 07005KT 010V120 9999 SCT020 SCT030 19/11 Q1014

Aika: 12:29 (11:29 UTC)


TAF: puuttuu

Säähavainnot ja -ennusteet yli 4000 lentoasemalta (METAR- ja TAF-raportit).

Käytössä olevat sääasemat on merkitty karttaan keltaisilla ja punaisilla pisteillä.

Aseta hiiri pisteen päälle nähdäksesi sääaseman nimen.

Klikkaa sitten nähdäksesi säähavainnot ja -ennusteet.

Kartan vaihtaminen: klikkaa mustalla rastilla varustettuja vihreitä pisteitä, niin voit zoomata sisään; viivalla varustettua vihreää pistettä, niin voit zoomata ulos tai vihreitä nuolia, niin pääset viereisille kartoille.


METAR-TAF: